createdAt,value
2022-12-19T00:00:18.126Z,47.83
2022-12-19T00:03:03.340Z,49.83
2022-12-19T00:05:49.351Z,50.67
2022-12-19T00:08:34.999Z,49.13
2022-12-19T00:11:22.674Z,50.50
2022-12-19T00:14:11.398Z,46.25
2022-12-19T00:16:56.814Z,50.75
2022-12-19T00:19:42.051Z,47.03
2022-12-19T00:22:27.448Z,50.70
2022-12-19T00:25:12.808Z,47.10
2022-12-19T00:27:58.260Z,44.28
2022-12-19T00:30:43.844Z,43.38
2022-12-19T00:33:29.731Z,45.10
2022-12-19T00:36:21.792Z,39.92
2022-12-19T00:39:10.209Z,42.25
2022-12-19T00:41:55.557Z,44.15
2022-12-19T00:44:41.209Z,45.60
2022-12-19T00:47:26.699Z,42.13
2022-12-19T00:50:11.920Z,45.13
2022-12-19T00:52:57.178Z,39.15
2022-12-19T00:55:42.655Z,44.80
2022-12-19T00:58:28.163Z,38.75
2022-12-19T01:01:20.199Z,45.63
2022-12-19T01:07:13.154Z,38.13
2022-12-19T01:09:58.213Z,44.88
2022-12-19T01:12:46.539Z,45.60
2022-12-19T01:15:32.125Z,40.67
2022-12-19T01:18:17.568Z,44.05
2022-12-19T01:21:08.254Z,41.33
2022-12-19T01:23:53.566Z,43.25
2022-12-19T01:26:38.503Z,43.13
2022-12-19T01:29:25.461Z,37.13
2022-12-19T01:32:10.910Z,41.03
2022-12-19T01:34:56.334Z,43.05
2022-12-19T01:37:41.625Z,36.40
2022-12-19T01:40:27.075Z,41.00
2022-12-19T01:43:14.059Z,39.03
2022-12-19T01:46:06.056Z,36.83
2022-12-19T01:48:51.281Z,41.75
2022-12-19T01:51:44.296Z,43.28
2022-12-19T01:54:38.554Z,40.03
2022-12-19T01:57:23.724Z,46.50
2022-12-19T02:00:09.964Z,38.22
2022-12-19T02:03:06.459Z,30.48
2022-12-19T02:05:55.126Z,40.35
2022-12-19T02:08:43.065Z,44.20
2022-12-19T02:11:28.309Z,41.17
2022-12-19T02:14:13.763Z,40.60
2022-12-19T02:17:17.149Z,42.95
2022-12-19T02:20:22.058Z,41.85
2022-12-19T02:23:46.271Z,42.10
2022-12-19T02:27:06.864Z,38.45
2022-12-19T02:29:59.517Z,43.83
2022-12-19T02:32:50.907Z,43.25
2022-12-19T02:36:02.482Z,40.22
2022-12-19T02:38:58.685Z,37.72
2022-12-19T02:41:52.778Z,35.90
2022-12-19T02:44:45.935Z,41.33
2022-12-19T02:47:32.650Z,41.83
2022-12-19T02:50:19.762Z,44.50
2022-12-19T02:53:05.142Z,46.15
2022-12-19T02:56:20.839Z,40.05
2022-12-19T02:59:21.401Z,48.30
2022-12-19T03:02:19.393Z,39.85
2022-12-19T03:05:33.726Z,41.03
2022-12-19T03:08:26.135Z,44.95
2022-12-19T03:11:14.779Z,43.00
2022-12-19T03:14:19.039Z,45.15
2022-12-19T03:17:08.749Z,44.38
2022-12-19T03:19:54.051Z,44.03
2022-12-19T03:22:39.263Z,45.15
2022-12-19T03:25:25.995Z,48.08
2022-12-19T03:28:15.981Z,52.95
2022-12-19T03:31:33.167Z,46.83
2022-12-19T03:34:24.883Z,50.88
2022-12-19T03:37:15.186Z,44.80
2022-12-19T03:40:05.605Z,46.35
2022-12-19T03:43:08.880Z,45.95
2022-12-19T03:46:04.306Z,50.03
2022-12-19T03:48:54.511Z,44.42
2022-12-19T03:51:59.104Z,46.05
2022-12-19T03:54:54.683Z,44.75
2022-12-19T03:58:02.042Z,46.75
2022-12-19T04:00:49.206Z,50.75
2022-12-19T04:03:34.587Z,47.70
2022-12-19T04:06:20.348Z,42.88
2022-12-19T04:09:06.228Z,48.25
2022-12-19T04:11:58.536Z,47.53
2022-12-19T04:14:44.348Z,51.15
2022-12-19T04:17:53.270Z,50.45
2022-12-19T04:20:44.087Z,48.00
2022-12-19T04:23:37.257Z,53.75
2022-12-19T04:26:24.353Z,45.75
2022-12-19T04:29:13.116Z,47.25
2022-12-19T04:31:59.099Z,49.22
2022-12-19T04:34:44.297Z,54.72
2022-12-19T04:37:31.124Z,48.33
2022-12-19T04:40:16.994Z,55.70
2022-12-19T04:43:02.358Z,42.90
2022-12-19T04:45:50.549Z,46.88
2022-12-19T04:48:39.305Z,50.45
2022-12-19T04:51:24.590Z,47.55
2022-12-19T04:54:09.629Z,50.25
2022-12-19T04:56:55.015Z,54.13
2022-12-19T04:59:40.216Z,56.65
2022-12-19T05:02:25.946Z,51.63
2022-12-19T05:05:11.522Z,48.65
2022-12-19T05:07:58.260Z,49.22
2022-12-19T05:10:43.895Z,53.88
2022-12-19T05:13:30.206Z,52.33
2022-12-19T05:16:16.088Z,54.33
2022-12-19T05:19:01.666Z,49.58
2022-12-19T05:21:46.777Z,58.40
2022-12-19T05:24:32.057Z,47.47
2022-12-19T05:27:17.908Z,56.58
2022-12-19T05:30:04.013Z,55.38
2022-12-19T05:32:49.160Z,62.38
2022-12-19T05:35:35.372Z,53.33
2022-12-19T05:38:20.670Z,46.95
2022-12-19T05:41:30.086Z,49.15
2022-12-19T05:44:15.290Z,53.40
2022-12-19T05:47:00.562Z,56.28
2022-12-19T05:49:45.724Z,53.25
2022-12-19T05:52:31.404Z,50.67
2022-12-19T05:55:17.610Z,49.90
2022-12-19T05:58:03.160Z,52.42
2022-12-19T06:00:48.468Z,46.95
2022-12-19T06:03:34.142Z,50.85
2022-12-19T06:06:21.914Z,47.47
2022-12-19T06:09:07.094Z,46.25
2022-12-19T06:11:52.832Z,50.10
2022-12-19T06:14:38.028Z,51.95
2022-12-19T06:17:23.367Z,48.38
2022-12-19T06:20:09.350Z,47.60
2022-12-19T06:22:54.372Z,49.78
2022-12-19T06:25:39.863Z,52.00
2022-12-19T06:28:27.129Z,48.47
2022-12-19T06:31:13.284Z,47.58
2022-12-19T06:33:58.539Z,51.72
2022-12-19T06:36:43.803Z,49.83
2022-12-19T06:39:29.128Z,48.95
2022-12-19T06:42:23.160Z,49.50
2022-12-19T06:45:09.088Z,48.83
2022-12-19T06:47:55.689Z,46.88
2022-12-19T06:50:41.363Z,47.67
2022-12-19T06:53:27.023Z,48.63
2022-12-19T06:56:15.387Z,54.63
2022-12-19T06:59:00.643Z,44.35
2022-12-19T07:02:00.660Z,45.50
2022-12-19T07:04:48.956Z,51.00
2022-12-19T07:07:34.336Z,48.53
2022-12-19T07:10:19.619Z,47.63
2022-12-19T07:13:05.441Z,49.00
2022-12-19T07:15:53.586Z,55.08
2022-12-19T07:18:40.837Z,45.75
2022-12-19T07:21:26.320Z,43.33
2022-12-19T07:24:14.821Z,44.45
2022-12-19T07:27:00.318Z,49.38
2022-12-19T07:29:45.558Z,43.35
2022-12-19T07:32:30.650Z,48.38
2022-12-19T07:35:16.633Z,48.15
2022-12-19T07:38:03.764Z,43.10
2022-12-19T07:40:49.024Z,46.33
2022-12-19T07:43:34.477Z,46.13
2022-12-19T07:46:20.099Z,41.35
2022-12-19T07:49:05.309Z,43.05
2022-12-19T07:51:50.847Z,43.13
2022-12-19T07:54:36.061Z,44.67
2022-12-19T07:57:21.245Z,43.70
2022-12-19T08:00:06.827Z,52.63
2022-12-19T08:03:01.244Z,39.90
2022-12-19T08:05:46.360Z,47.00
2022-12-19T08:08:32.699Z,47.65
2022-12-19T08:11:27.188Z,42.05
2022-12-19T08:14:12.328Z,44.67
2022-12-19T08:20:03.333Z,49.88
2022-12-19T08:22:49.089Z,46.10
2022-12-19T08:25:35.001Z,43.22
2022-12-19T08:28:20.265Z,46.85
2022-12-19T08:31:10.926Z,46.67
2022-12-19T08:33:57.555Z,46.15
2022-12-19T08:36:42.749Z,42.30
2022-12-19T08:39:28.163Z,44.83
2022-12-19T08:42:13.874Z,41.20
2022-12-19T08:44:59.182Z,46.38
2022-12-19T08:47:45.321Z,47.13
2022-12-19T08:50:31.585Z,41.08
2022-12-19T08:53:22.711Z,41.50
2022-12-19T08:56:17.548Z,42.60
2022-12-19T08:59:02.805Z,38.45
2022-12-19T09:01:48.247Z,44.15
2022-12-19T09:06:03.726Z,39.63
2022-12-19T09:07:39.659Z,49.58
2022-12-19T09:10:25.179Z,44.13
2022-12-19T09:13:10.385Z,35.08
2022-12-19T09:16:03.281Z,40.42
2022-12-19T09:18:50.964Z,42.70
2022-12-19T09:21:36.356Z,44.70
2022-12-19T09:24:21.868Z,45.20
2022-12-19T09:27:07.196Z,47.67
2022-12-19T09:29:52.260Z,42.30
2022-12-19T09:32:37.692Z,45.88
2022-12-19T09:35:28.464Z,43.08
2022-12-19T09:38:15.280Z,39.00
2022-12-19T09:41:00.693Z,42.92
2022-12-19T09:44:01.367Z,43.35
2022-12-19T09:46:54.811Z,42.33
2022-12-19T09:49:45.930Z,47.30
2022-12-19T09:52:41.149Z,43.15
2022-12-19T09:55:32.637Z,42.58
2022-12-19T09:58:23.827Z,41.00
2022-12-19T10:01:36.186Z,45.47
2022-12-19T10:04:25.042Z,43.25
2022-12-19T10:07:33.167Z,38.77
2022-12-19T10:12:34.597Z,43.47
2022-12-19T10:13:58.216Z,39.65
2022-12-19T10:17:08.911Z,34.13
2022-12-19T10:20:14.989Z,39.72
2022-12-19T10:23:55.765Z,44.03
2022-12-19T10:26:46.655Z,46.03
2022-12-19T10:29:41.167Z,36.95
2022-12-19T10:32:49.878Z,40.72
2022-12-19T10:35:42.297Z,44.47
2022-12-19T10:38:35.845Z,36.45
2022-12-19T10:41:32.266Z,41.60
2022-12-19T10:44:19.086Z,41.80
2022-12-19T10:47:04.782Z,42.88
2022-12-19T10:49:50.083Z,38.22
2022-12-19T10:52:52.348Z,40.20
2022-12-19T10:55:48.005Z,41.75
2022-12-19T10:58:36.185Z,35.65
2022-12-19T11:01:29.273Z,42.90
2022-12-19T11:04:33.178Z,40.00
2022-12-19T11:07:21.183Z,36.42
2022-12-19T11:11:43.164Z,41.30
2022-12-19T11:17:44.994Z,40.90
2022-12-19T11:22:07.693Z,35.03
2022-12-19T11:29:33.108Z,38.08
2022-12-19T11:29:35.141Z,43.63
2022-12-19T11:30:47.110Z,41.92
2022-12-19T11:33:11.298Z,37.95
2022-12-19T11:35:59.078Z,41.00
2022-12-19T11:38:53.987Z,37.85
2022-12-19T11:41:45.820Z,42.00
2022-12-19T11:44:46.629Z,43.70
2022-12-19T11:47:58.687Z,38.38
2022-12-19T11:50:58.859Z,39.80
2022-12-19T11:53:56.393Z,38.45
2022-12-19T11:56:41.907Z,43.60
2022-12-19T11:59:36.784Z,42.53
2022-12-19T12:02:40.752Z,44.78
2022-12-19T12:05:38.069Z,42.28
2022-12-19T12:13:36.176Z,39.25
2022-12-19T12:19:46.880Z,39.10
2022-12-19T12:29:31.010Z,40.17
2022-12-19T12:31:05.151Z,45.03
2022-12-19T12:31:22.908Z,42.78
2022-12-19T12:31:42.233Z,40.75
2022-12-19T12:31:50.062Z,40.03
2022-12-19T12:35:56.480Z,37.65
2022-12-19T12:39:24.345Z,34.70
2022-12-19T12:42:33.532Z,36.95
2022-12-19T12:45:40.155Z,36.90
2022-12-19T12:48:38.081Z,38.45
2022-12-19T12:51:25.548Z,41.95
2022-12-19T12:54:14.824Z,40.83
2022-12-19T12:57:01.488Z,40.40
2022-12-19T12:59:47.732Z,44.30
2022-12-19T13:02:33.327Z,40.83
2022-12-19T13:11:10.436Z,39.20
2022-12-19T13:13:58.067Z,45.28
2022-12-19T13:16:43.594Z,47.50
2022-12-19T13:19:34.389Z,49.88
2022-12-19T13:22:41.800Z,41.83
2022-12-19T13:25:27.111Z,42.78
2022-12-19T13:28:21.785Z,43.38
2022-12-19T13:31:19.771Z,39.30
2022-12-19T13:34:17.422Z,49.05
2022-12-19T13:39:49.937Z,42.78
2022-12-19T13:43:42.444Z,42.72
2022-12-19T13:46:42.566Z,39.35
2022-12-19T13:49:34.780Z,44.08
2022-12-19T13:52:20.746Z,42.88
2022-12-19T13:55:14.135Z,44.92
2022-12-19T13:58:04.369Z,46.83
2022-12-19T14:00:53.949Z,48.72
2022-12-19T14:03:42.559Z,43.25
2022-12-19T14:06:30.979Z,42.78
2022-12-19T14:11:25.255Z,44.57
2022-12-19T14:13:51.144Z,43.80
2022-12-19T14:16:15.187Z,44.85
2022-12-19T14:19:00.636Z,41.78
2022-12-19T14:22:05.442Z,46.08
2022-12-19T14:25:33.210Z,44.47
2022-12-19T14:28:17.737Z,48.50
2022-12-19T14:31:16.508Z,42.42
2022-12-19T14:34:35.466Z,49.65
2022-12-19T14:38:03.843Z,49.95
2022-12-19T14:41:00.200Z,50.45
2022-12-19T14:52:50.943Z,44.58
2022-12-19T14:54:38.004Z,46.30
2022-12-19T14:58:50.903Z,44.78
2022-12-19T15:01:10.315Z,48.83
2022-12-19T15:04:50.555Z,42.00
2022-12-19T15:07:14.931Z,49.72
2022-12-19T15:11:03.940Z,45.88
2022-12-19T15:14:47.270Z,46.50
2022-12-19T15:16:30.550Z,46.45
2022-12-19T15:19:15.739Z,50.60
2022-12-19T15:22:01.123Z,46.50
2022-12-19T15:24:46.621Z,47.50
2022-12-19T15:27:31.886Z,47.45
2022-12-19T15:30:20.576Z,46.63
2022-12-19T15:33:13.214Z,46.00
2022-12-19T15:35:58.501Z,46.58
2022-12-19T15:38:44.019Z,46.35
2022-12-19T15:41:29.571Z,51.90
2022-12-19T15:44:31.293Z,59.20
2022-12-19T15:47:25.701Z,48.85
2022-12-19T15:50:18.627Z,46.08
2022-12-19T15:53:32.780Z,44.67
2022-12-19T15:56:31.790Z,49.20
2022-12-19T15:59:22.962Z,48.65
2022-12-19T16:02:27.996Z,46.55
2022-12-19T16:05:24.951Z,44.13
2022-12-19T16:08:21.343Z,46.17
2022-12-19T16:11:06.600Z,49.97
2022-12-19T16:13:57.925Z,41.78
2022-12-19T16:16:46.530Z,43.58
2022-12-19T16:19:32.201Z,34.60
2022-12-19T16:22:23.711Z,43.90
2022-12-19T16:25:11.469Z,47.67
2022-12-19T16:27:58.686Z,44.97
2022-12-19T16:30:44.533Z,43.75
2022-12-19T16:33:31.151Z,39.90
2022-12-19T16:36:16.298Z,47.22
2022-12-19T16:39:01.558Z,46.13
2022-12-19T16:41:47.346Z,48.15
2022-12-19T16:44:34.751Z,48.75
2022-12-19T16:47:19.800Z,54.58
2022-12-19T16:50:17.483Z,46.88
2022-12-19T16:53:02.590Z,47.33
2022-12-19T16:55:49.774Z,47.08
2022-12-19T16:58:41.306Z,45.10
2022-12-19T17:01:28.912Z,45.00
2022-12-19T17:04:17.507Z,50.80
2022-12-19T17:07:10.882Z,48.50
2022-12-19T17:09:56.158Z,42.35
2022-12-19T17:12:42.580Z,45.45
2022-12-19T17:15:34.283Z,43.60
2022-12-19T17:18:31.467Z,47.75
2022-12-19T17:21:22.111Z,41.60
2022-12-19T17:24:12.893Z,45.95
2022-12-19T17:26:58.056Z,52.00
2022-12-19T17:29:43.947Z,47.08
2022-12-19T17:32:29.524Z,44.58
2022-12-19T17:35:27.364Z,46.97
2022-12-19T17:38:15.280Z,51.70
2022-12-19T17:41:00.540Z,42.70
2022-12-19T17:43:45.810Z,42.70
2022-12-19T17:46:31.339Z,41.88
2022-12-19T17:49:21.668Z,47.03
2022-12-19T17:52:13.504Z,45.00
2022-12-19T17:54:58.517Z,53.72
2022-12-19T17:57:44.344Z,49.28
2022-12-19T18:00:32.386Z,51.42
2022-12-19T18:03:25.815Z,46.55
2022-12-19T18:06:12.466Z,46.40
2022-12-19T18:08:57.773Z,44.55
2022-12-19T18:11:42.882Z,48.08
2022-12-19T18:14:28.391Z,43.33
2022-12-19T18:17:21.406Z,47.53
2022-12-19T18:20:31.921Z,48.38
2022-12-19T18:23:20.444Z,45.17
2022-12-19T18:26:05.945Z,48.08
2022-12-19T18:28:50.998Z,46.65
2022-12-19T18:31:36.812Z,47.38
2022-12-19T18:34:25.873Z,50.50
2022-12-19T18:37:17.278Z,32.33
2022-12-19T18:40:02.462Z,48.28
2022-12-19T18:42:48.784Z,48.95
2022-12-19T18:45:36.968Z,47.95
2022-12-19T18:48:32.875Z,48.22
2022-12-19T18:51:20.978Z,48.97
2022-12-19T18:54:15.286Z,45.97
2022-12-19T18:57:00.615Z,44.60
2022-12-19T18:59:47.650Z,45.35
2022-12-19T19:02:33.371Z,50.50
2022-12-19T19:05:22.162Z,44.13
2022-12-19T19:08:16.313Z,32.67
2022-12-19T19:11:03.554Z,41.22
2022-12-19T19:13:49.288Z,43.22
2022-12-19T19:16:36.962Z,48.65
2022-12-19T19:19:21.998Z,41.92
2022-12-19T19:22:07.233Z,41.38
2022-12-19T19:24:52.669Z,48.00
2022-12-19T19:27:39.829Z,41.03
2022-12-19T19:30:25.219Z,44.83
2022-12-19T19:33:19.960Z,42.10
2022-12-19T19:36:12.309Z,39.35
2022-12-19T19:38:59.025Z,41.15
2022-12-19T19:41:44.523Z,40.42
2022-12-19T19:44:30.079Z,39.35
2022-12-19T19:47:15.535Z,39.72
2022-12-19T19:50:00.793Z,40.53
2022-12-19T19:52:46.297Z,42.35
2022-12-19T19:55:31.644Z,39.25
2022-12-19T19:58:16.840Z,48.33
2022-12-19T20:01:08.141Z,40.97
2022-12-19T20:03:53.602Z,39.45
2022-12-19T20:06:38.765Z,39.13
2022-12-19T20:09:23.816Z,42.20
2022-12-19T20:12:09.351Z,45.20
2022-12-19T20:14:54.540Z,47.38
2022-12-19T20:17:40.624Z,44.15
2022-12-19T20:20:26.081Z,41.78
2022-12-19T20:23:11.537Z,41.22
2022-12-19T20:26:01.527Z,39.08
2022-12-19T20:31:35.205Z,38.83
2022-12-19T20:34:20.362Z,39.22
2022-12-19T20:37:05.827Z,42.65
2022-12-19T20:39:52.758Z,38.25
2022-12-19T20:42:38.344Z,40.10
2022-12-19T20:45:23.423Z,38.90
2022-12-19T20:48:09.244Z,41.67
2022-12-19T20:50:59.280Z,43.20
2022-12-19T20:53:45.014Z,38.50
2022-12-19T20:56:30.875Z,41.65
2022-12-19T20:59:16.573Z,42.13
2022-12-19T21:02:02.585Z,39.03
2022-12-19T21:04:48.324Z,36.85
2022-12-19T21:07:33.835Z,37.30
2022-12-19T21:10:18.885Z,35.22
2022-12-19T21:13:04.606Z,33.40
2022-12-19T21:15:54.505Z,36.22
2022-12-19T21:18:43.826Z,32.22
2022-12-19T21:21:29.470Z,32.83
2022-12-19T21:24:14.801Z,35.03
2022-12-19T21:27:00.134Z,33.22
2022-12-19T21:29:45.522Z,36.50
2022-12-19T21:32:30.701Z,36.08
2022-12-19T21:35:16.292Z,36.22
2022-12-19T21:38:01.790Z,33.10
2022-12-19T21:40:47.583Z,34.13
2022-12-19T21:43:34.364Z,33.50
2022-12-19T21:46:22.390Z,37.58
2022-12-19T21:49:08.670Z,38.13
2022-12-19T21:51:53.828Z,37.72
2022-12-19T21:54:39.067Z,35.42
2022-12-19T21:57:24.274Z,31.63
2022-12-19T22:00:12.936Z,35.10
2022-12-19T22:03:15.111Z,35.97
2022-12-19T22:06:01.353Z,32.75
2022-12-19T22:08:47.055Z,37.50
2022-12-19T22:11:32.204Z,32.85
2022-12-19T22:14:18.162Z,35.55
2022-12-19T22:17:03.514Z,31.35
2022-12-19T22:19:48.997Z,33.63
2022-12-19T22:22:34.365Z,45.15
2022-12-19T22:25:19.478Z,37.05
2022-12-19T22:28:05.455Z,28.48
2022-12-19T22:30:50.704Z,33.90
2022-12-19T22:33:35.872Z,32.55
2022-12-19T22:36:28.060Z,31.45
2022-12-19T22:39:17.780Z,32.55
2022-12-19T22:42:03.093Z,33.92
2022-12-19T22:44:48.255Z,37.55
2022-12-19T22:47:33.649Z,37.33
2022-12-19T22:50:19.671Z,35.35
2022-12-19T22:53:12.554Z,40.85
2022-12-19T22:56:06.126Z,34.03
2022-12-19T22:58:53.331Z,32.10
2022-12-19T23:01:44.245Z,32.78
2022-12-19T23:04:30.025Z,37.30
2022-12-19T23:07:16.225Z,33.13
2022-12-19T23:10:02.794Z,36.05
2022-12-19T23:12:50.628Z,36.75
2022-12-19T23:15:35.715Z,34.50
2022-12-19T23:18:20.823Z,34.08
2022-12-19T23:21:10.285Z,35.33
2022-12-19T23:23:56.341Z,30.75
2022-12-19T23:26:41.579Z,36.40
2022-12-19T23:29:26.763Z,34.80
2022-12-19T23:32:14.275Z,37.38
2022-12-19T23:34:59.811Z,32.95
2022-12-19T23:37:44.985Z,35.53
2022-12-19T23:40:30.231Z,33.63
2022-12-19T23:43:16.246Z,30.63
2022-12-19T23:46:12.181Z,30.73
2022-12-19T23:48:57.496Z,32.90
2022-12-19T23:51:43.078Z,32.60
2022-12-19T23:54:28.192Z,32.63
2022-12-19T23:57:13.498Z,35.35
2022-12-19T23:59:59.264Z,34.00
